Airfield :
LOGIN :

Register | Disclaimer

   EN    FR    IT 

 










Legend :    VFR   Marginal VFR   IFR   Intensive IFR   Very Intensive IFR
Visi :
Ceiling :
>= 8 km
>= 3000ft
5 to 8 km
1000 to 3000 ft
1500m to 5 km
500 to 1000 ft
800 to 1500m
200 to 500 ft
< 800m
< 200 ft
Symbols :   Thunderstorms  Fog  Heavy snow  Heavy precipitations  Wind > 20 kt
SIGMETs :     Misc.  Thunderstorms  Icing  Turbulence  Mountain Waves  Volcanic Ashes






- Airport Elevation : 124 ft
- IATA code : RNS


LFRN - Rennes

CURRENT METAR :
  • 190600Z AUTO 03007KT 9999 OVC011 16/14 Q1014 TEMPO 4000 SHRA BKN009 SCT040TCU

EXPIRED METARs :
  • 190530Z AUTO 02007KT 9000 OVC011 16/14 Q1013 TEMPO 4000 SHRA BKN009 SCT040TCU
  • 190500Z AUTO 02008KT 350V060 9000 OVC012 15/14 Q1013 TEMPO 4000 SHRA BKN008 BKN035CB
  • 190430Z AUTO 01008KT 330V030 9000 FEW011 OVC018 15/14 Q1013 TEMPO 4000 SHRA BKN008 BKN035CB
  • 190400Z AUTO 02008KT 9999 OVC018 15/14 Q1013 TEMPO 4000 SHRA BKN008 BKN035CB
  • 190330Z AUTO 03007KT 9999 OVC017 15/13 Q1013 TEMPO 4000 SHRA BKN008 BKN035CB
  • 190300Z AUTO 01008KT 340V050 9999 OVC018 15/13 Q1013 TEMPO BKN010
  • 190230Z AUTO 03007KT 9999 OVC014 15/13 Q1014 NOSIG
  • 190200Z AUTO 04005KT 010V080 9999 BKN015 BKN100 OVC170 15/13 Q1014 TEMPO BKN010
  • 190130Z AUTO 01007KT CAVOK 15/13 Q1013 TEMPO BKN010
  • 190100Z AUTO 01006KT CAVOK 15/14 Q1014 TEMPO BKN010

TAF TAF LFRN
Valid from the 19 at 06:00 until the 20 at 06:00 UTC


190500Z 1906/2006 01008KT CAVOK
TEMPO 1906/1909 4000 SHRA BKN009 SCT040TCU
TEMPO 1909/2003 3000 SHRA BKN012 BKN025CB
PROB30
TEMPO 1910/1921 04015G30KT 1400 TSRAGR BKN015CB
PROB40
TEMPO 2002/2006 BKN007
ATIS : +33 2 99 67 72 50



MET'MAP, your aeronautical weather chart ! - Copyright ORBIFLY December 2007 - Disclaimer

ORBIFLY MET'MAP TEAM :

Programming & Development : Alexandra Zaïnal
Original concept : Baudouin d'Aumeries
Technical & hardware support : Manuel Goepfert
Assistance : Marc-Olivier Méhu




SOURCES & CREDITS :

   NOAA